Alpena, Arkansas
Current Conditions -  °F | °C
As of 11:53 PM on Thursday 18 Dec 2014 (Local Time) from KHRO Reporting Station
Haze Haze  
Wind Chill: 33°   Ceiling: 300
Heat Index: 37°   Visibility: 4mi
Dew Point: 37°   Wind: 5mph
Humidity: 100%   Direction: 120°ESE
Pressure: 30.22"   Gusts: NA
Location:  36.29°N, 93.29°W
Report Text: KHRO 190553Z AUTO 12004KT 4SM BR OVC003 03/03 A3022 RMK AO2 SLP238 T00280028 10039 20028 400440000 50004
Loading
Personal Weather Stations






























Interactive Weather Map New forecast layout! Learn more

10-Day Weather Forecast

Advertisements
Track Severe Weather on mobile